createdAt,value
2022-08-25T00:00:06.600Z,0.9
2022-08-25T00:01:06.710Z,4.3
2022-08-25T00:02:07.033Z,5.8
2022-08-25T00:03:06.752Z,2.2
2022-08-25T00:04:06.865Z,3.4
2022-08-25T00:05:06.584Z,2.3
2022-08-25T00:06:06.252Z,3.5
2022-08-25T00:07:07.014Z,4.6
2022-08-25T00:08:06.738Z,2.1
2022-08-25T00:09:06.465Z,1.8
2022-08-25T00:10:07.200Z,2.8
2022-08-25T00:11:06.976Z,5.1
2022-08-25T00:12:06.734Z,3.7
2022-08-25T00:13:06.313Z,3.2
2022-08-25T00:14:07.048Z,2.6
2022-08-25T00:15:06.974Z,3.5
2022-08-25T00:16:06.730Z,2.5
2022-08-25T00:17:06.478Z,4.3
2022-08-25T00:18:06.310Z,1.6
2022-08-25T00:19:06.977Z,3.7
2022-08-25T00:20:06.887Z,3.5
2022-08-25T00:21:06.694Z,3.8
2022-08-25T00:22:06.441Z,2.6
2022-08-25T00:23:07.181Z,2.5
2022-08-25T00:24:06.942Z,0.9
2022-08-25T00:25:06.712Z,4.9
2022-08-25T00:26:06.377Z,1.7
2022-08-25T00:27:07.089Z,3.2
2022-08-25T00:28:06.805Z,2.2
2022-08-25T00:29:06.514Z,3.2
2022-08-25T00:30:06.363Z,0.8
2022-08-25T00:31:07.140Z,2
2022-08-25T00:32:06.381Z,6.1
2022-08-25T00:33:07.113Z,2.1
2022-08-25T00:34:06.873Z,1.4
2022-08-25T00:35:06.855Z,2.9
2022-08-25T00:36:06.566Z,3
2022-08-25T00:37:06.320Z,1.2
2022-08-25T00:38:06.980Z,2.7
2022-08-25T00:39:06.712Z,4
2022-08-25T00:40:06.521Z,3
2022-08-25T00:41:06.235Z,5.5
2022-08-25T00:42:06.929Z,4.7
2022-08-25T00:43:06.641Z,1.6
2022-08-25T00:44:06.305Z,3.6
2022-08-25T00:45:07.106Z,1.5
2022-08-25T00:46:06.795Z,5.2
2022-08-25T00:47:07.074Z,4.4
2022-08-25T00:48:06.789Z,2
2022-08-25T00:49:06.486Z,2.4
2022-08-25T00:50:06.556Z,3.5
2022-08-25T00:51:06.267Z,3.7
2022-08-25T00:52:06.722Z,2.7
2022-08-25T00:53:06.485Z,4.5
2022-08-25T00:54:07.214Z,3.3
2022-08-25T00:55:06.520Z,2
2022-08-25T00:56:06.896Z,0.9
2022-08-25T00:57:06.658Z,1.5
2022-08-25T00:58:06.442Z,3.8
2022-08-25T00:59:07.116Z,3
2022-08-25T01:00:06.921Z,2.9
2022-08-25T01:01:06.727Z,4.2
2022-08-25T01:02:06.465Z,3.6
2022-08-25T01:03:07.094Z,1.4
2022-08-25T01:04:07.108Z,3.7
2022-08-25T01:05:06.852Z,2.1
2022-08-25T01:06:06.655Z,3
2022-08-25T01:07:06.240Z,2.3
2022-08-25T01:08:07.003Z,6.3
2022-08-25T01:09:06.604Z,2.8
2022-08-25T01:10:06.383Z,2.9
2022-08-25T01:11:06.266Z,1.7
2022-08-25T01:12:07.043Z,1.6
2022-08-25T01:13:06.757Z,3.5
2022-08-25T01:14:06.473Z,1.9
2022-08-25T01:15:06.348Z,3.6
2022-08-25T01:16:07.071Z,2
2022-08-25T01:17:06.850Z,4.3
2022-08-25T01:18:06.598Z,3
2022-08-25T01:19:07.084Z,2.4
2022-08-25T01:20:06.762Z,1.5
2022-08-25T01:21:06.551Z,3.7
2022-08-25T01:22:06.741Z,4.6
2022-08-25T01:23:06.416Z,3
2022-08-25T01:24:07.045Z,3.5
2022-08-25T01:25:07.242Z,2.8
2022-08-25T01:26:06.669Z,2.3
2022-08-25T01:27:06.345Z,2.8
2022-08-25T01:28:07.112Z,2.7
2022-08-25T01:29:06.811Z,4.1
2022-08-25T01:30:06.568Z,1.7
2022-08-25T01:31:07.242Z,6.7
2022-08-25T01:32:07.183Z,1.4
2022-08-25T01:33:06.829Z,2.8
2022-08-25T01:34:06.468Z,2.9
2022-08-25T01:35:06.859Z,5.7
2022-08-25T01:36:06.630Z,1.1
2022-08-25T01:37:06.323Z,6.2
2022-08-25T01:38:06.391Z,3.2
2022-08-25T01:39:07.235Z,1.5
2022-08-25T01:40:06.901Z,6.2
2022-08-25T01:41:06.714Z,2.4
2022-08-25T01:42:06.505Z,5.8
2022-08-25T01:43:07.013Z,4
2022-08-25T01:44:06.600Z,3.6
2022-08-25T01:45:06.561Z,6.6
2022-08-25T01:46:06.329Z,3.5
2022-08-25T01:47:07.069Z,2.9
2022-08-25T01:48:06.768Z,1.5
2022-08-25T01:49:06.515Z,5.7
2022-08-25T01:50:06.241Z,4.1
2022-08-25T01:51:06.980Z,2.7
2022-08-25T01:52:06.736Z,2.7
2022-08-25T01:53:06.808Z,3.7
2022-08-25T01:54:06.545Z,5
2022-08-25T01:55:07.166Z,2.5
2022-08-25T01:56:06.924Z,2.6
2022-08-25T01:57:06.772Z,2.8
2022-08-25T01:58:06.458Z,7.2
2022-08-25T01:59:06.566Z,5.3
2022-08-25T02:00:06.447Z,3.2
2022-08-25T02:01:06.598Z,6.3
2022-08-25T02:02:06.364Z,1.8
2022-08-25T02:03:07.019Z,5.3
2022-08-25T02:04:06.339Z,4.9
2022-08-25T02:05:06.526Z,4.1
2022-08-25T02:06:06.274Z,6.2
2022-08-25T02:07:06.963Z,3.4
2022-08-25T02:08:06.708Z,1.3
2022-08-25T02:09:06.433Z,2.2
2022-08-25T02:10:07.271Z,4.6
2022-08-25T02:11:06.963Z,3
2022-08-25T02:12:07.099Z,3.3
2022-08-25T02:13:06.805Z,2
2022-08-25T02:14:06.592Z,1.1
2022-08-25T02:15:06.306Z,3.4
2022-08-25T02:16:06.974Z,1.9
2022-08-25T02:17:06.585Z,9.2
2022-08-25T02:18:06.301Z,3.7
2022-08-25T02:19:06.974Z,2.7
2022-08-25T02:20:06.691Z,2.3
2022-08-25T02:21:06.424Z,4.2
2022-08-25T02:22:07.124Z,5.6
2022-08-25T02:23:06.846Z,6.1
2022-08-25T02:24:06.598Z,4.2
2022-08-25T02:25:06.320Z,3
2022-08-25T02:26:07.090Z,3.8
2022-08-25T02:27:06.823Z,3.7
2022-08-25T02:28:06.567Z,3.9
2022-08-25T02:29:06.343Z,1.8
2022-08-25T02:30:07.143Z,2.8
2022-08-25T02:31:06.902Z,2
2022-08-25T02:32:06.687Z,6.2
2022-08-25T02:33:06.529Z,2.7
2022-08-25T02:34:06.321Z,8.1
2022-08-25T02:35:07.081Z,1.8
2022-08-25T02:36:06.755Z,1.7
2022-08-25T02:37:06.456Z,3.6
2022-08-25T02:38:07.085Z,3.5
2022-08-25T02:39:06.820Z,1.7
2022-08-25T02:40:06.545Z,3.5
2022-08-25T02:41:06.383Z,3.4
2022-08-25T02:42:07.105Z,2.8
2022-08-25T02:43:06.790Z,2.3
2022-08-25T02:44:06.523Z,3.8
2022-08-25T02:45:07.196Z,2.6
2022-08-25T02:46:06.912Z,2
2022-08-25T02:47:06.644Z,2.5
2022-08-25T02:48:06.323Z,3.5
2022-08-25T02:49:07.035Z,2.6
2022-08-25T02:50:06.805Z,2.7
2022-08-25T02:51:06.556Z,4
2022-08-25T02:52:07.220Z,3.3
2022-08-25T02:53:06.907Z,3.4
2022-08-25T02:54:06.740Z,4.7
2022-08-25T02:55:06.469Z,2.4
2022-08-25T02:56:06.984Z,2.5
2022-08-25T02:57:06.635Z,4.2
2022-08-25T02:58:06.452Z,2.8
2022-08-25T02:59:07.171Z,2.9
2022-08-25T03:00:07.019Z,5.2
2022-08-25T03:01:07.184Z,2.8
2022-08-25T03:02:06.835Z,2.5
2022-08-25T03:03:06.673Z,5.8
2022-08-25T03:04:06.530Z,2.6
2022-08-25T03:05:06.326Z,3.4
2022-08-25T03:06:06.943Z,3.3
2022-08-25T03:07:06.570Z,2.1
2022-08-25T03:08:06.914Z,4.7
2022-08-25T03:09:06.647Z,4.1
2022-08-25T03:10:06.287Z,6.6
2022-08-25T03:11:06.997Z,3.9
2022-08-25T03:12:06.733Z,3.1
2022-08-25T03:13:06.382Z,4.5
2022-08-25T03:14:07.085Z,4.5
2022-08-25T03:15:06.828Z,3
2022-08-25T03:16:06.512Z,2.4
2022-08-25T03:17:06.219Z,3.6
2022-08-25T03:18:06.887Z,1.7
2022-08-25T03:19:06.666Z,6
2022-08-25T03:20:06.575Z,2.5
2022-08-25T03:21:07.200Z,2.2
2022-08-25T03:22:06.865Z,3.5
2022-08-25T03:23:06.556Z,1.8
2022-08-25T03:24:06.354Z,5.6
2022-08-25T03:25:07.074Z,2.9
2022-08-25T03:26:06.806Z,3.2
2022-08-25T03:27:06.556Z,2.3
2022-08-25T03:28:06.317Z,3.3
2022-08-25T03:29:07.068Z,5.2
2022-08-25T03:30:06.711Z,4.3
2022-08-25T03:31:06.537Z,7
2022-08-25T03:32:07.221Z,2
2022-08-25T03:33:06.984Z,5.1
2022-08-25T03:34:06.724Z,2.5
2022-08-25T03:35:06.461Z,3.7
2022-08-25T03:36:06.290Z,4.4
2022-08-25T03:37:07.050Z,2.5
2022-08-25T03:38:06.826Z,4.9
2022-08-25T03:39:06.499Z,2.3
2022-08-25T03:40:06.232Z,2.1
2022-08-25T03:41:06.964Z,1.8
2022-08-25T03:42:06.812Z,6.5
2022-08-25T03:43:06.524Z,1
2022-08-25T03:44:06.398Z,2.4
2022-08-25T03:45:07.120Z,5.7
2022-08-25T03:46:06.842Z,3.5
2022-08-25T03:47:06.577Z,2.8
2022-08-25T03:48:06.315Z,3
2022-08-25T03:49:07.179Z,3.7
2022-08-25T03:50:07.002Z,3.6
2022-08-25T03:51:06.856Z,2
2022-08-25T03:52:06.988Z,2.3
2022-08-25T03:53:06.765Z,4.6
2022-08-25T03:54:06.516Z,1.6
2022-08-25T03:55:06.361Z,2
2022-08-25T03:56:06.912Z,2.4
2022-08-25T03:57:06.611Z,2.8
2022-08-25T03:58:06.276Z,2.3
2022-08-25T03:59:06.866Z,3.2
2022-08-25T04:00:06.735Z,4.7
2022-08-25T04:01:06.933Z,3.5
2022-08-25T04:02:06.725Z,3.7
2022-08-25T04:03:06.403Z,1.2
2022-08-25T04:04:07.187Z,2.3
2022-08-25T04:05:06.827Z,5.3
2022-08-25T04:06:06.575Z,4.4
2022-08-25T04:07:07.224Z,2.2
2022-08-25T04:08:07.023Z,4
2022-08-25T04:09:06.702Z,3.4
2022-08-25T04:10:07.220Z,6.4
2022-08-25T04:11:06.383Z,3.7
2022-08-25T04:12:07.151Z,4.2
2022-08-25T04:13:06.913Z,3
2022-08-25T04:14:06.574Z,3.3
2022-08-25T04:15:06.279Z,2.7
2022-08-25T04:16:06.980Z,4
2022-08-25T04:17:06.711Z,5.1
2022-08-25T04:18:07.130Z,2.4
2022-08-25T04:19:06.837Z,3.3
2022-08-25T04:20:06.502Z,4.2
2022-08-25T04:21:06.396Z,2.8
2022-08-25T04:22:07.072Z,7.5
2022-08-25T04:23:06.700Z,4.4
2022-08-25T04:24:06.492Z,4.7
2022-08-25T04:25:07.195Z,9.1
2022-08-25T04:26:07.020Z,3.4
2022-08-25T04:27:06.779Z,4
2022-08-25T04:28:06.501Z,4.7
2022-08-25T04:29:07.231Z,2.3
2022-08-25T04:30:07.004Z,1.2
2022-08-25T04:31:07.018Z,4.3
2022-08-25T04:32:06.834Z,1.7
2022-08-25T04:33:06.602Z,2.5
2022-08-25T04:34:06.398Z,6.9
2022-08-25T04:35:07.032Z,5.3
2022-08-25T04:36:06.767Z,3.3
2022-08-25T04:37:06.418Z,2.9
2022-08-25T04:38:07.260Z,3.6
2022-08-25T04:39:06.971Z,5.9
2022-08-25T04:40:06.735Z,3.9
2022-08-25T04:41:06.618Z,4.2
2022-08-25T04:42:06.318Z,3.1
2022-08-25T04:43:06.981Z,2.5
2022-08-25T04:44:06.680Z,2
2022-08-25T04:45:06.481Z,2.3
2022-08-25T04:46:06.425Z,5.5
2022-08-25T04:47:07.177Z,4
2022-08-25T04:48:07.142Z,1.7
2022-08-25T04:49:06.843Z,3.2
2022-08-25T04:50:06.664Z,1.8
2022-08-25T04:51:06.906Z,3.8
2022-08-25T04:52:06.729Z,1.5
2022-08-25T04:53:06.437Z,1.6
2022-08-25T04:54:07.234Z,3.4
2022-08-25T04:55:06.848Z,2.5
2022-08-25T04:56:06.611Z,4.1
2022-08-25T04:57:06.383Z,3.1
2022-08-25T04:58:07.190Z,1.3
2022-08-25T04:59:06.872Z,2.6
2022-08-25T05:00:06.602Z,3.2
2022-08-25T05:01:06.845Z,3.5
2022-08-25T05:02:06.605Z,2.9
2022-08-25T05:03:06.311Z,3.7
2022-08-25T05:04:07.118Z,1.7
2022-08-25T05:05:06.936Z,3.5
2022-08-25T05:06:06.605Z,6.2
2022-08-25T05:07:07.128Z,4.8
2022-08-25T05:08:06.769Z,4.1
2022-08-25T05:09:06.589Z,8.1
2022-08-25T05:10:06.308Z,2.2
2022-08-25T05:11:07.104Z,2.6
2022-08-25T05:12:07.185Z,3.4
2022-08-25T05:13:07.193Z,5.9
2022-08-25T05:14:06.977Z,4.6
2022-08-25T05:15:06.714Z,3.4
2022-08-25T05:16:06.566Z,3
2022-08-25T05:17:06.333Z,4.6
2022-08-25T05:18:06.254Z,1.7
2022-08-25T05:19:07.087Z,1.2
2022-08-25T05:20:06.818Z,1.7
2022-08-25T05:21:07.111Z,2.8
2022-08-25T05:22:06.928Z,1.8
2022-08-25T05:23:06.672Z,1.3
2022-08-25T05:24:06.435Z,2.5
2022-08-25T05:25:07.307Z,3.8
2022-08-25T05:26:06.930Z,4.1
2022-08-25T05:27:06.678Z,3.6
2022-08-25T05:28:06.464Z,3.4
2022-08-25T05:29:07.113Z,3.2
2022-08-25T05:30:06.908Z,6
2022-08-25T05:31:06.976Z,4.4
2022-08-25T05:32:06.628Z,4
2022-08-25T05:33:06.330Z,5.1
2022-08-25T05:34:07.134Z,1.6
2022-08-25T05:35:06.846Z,1.4
2022-08-25T05:36:06.692Z,2.9
2022-08-25T05:37:06.350Z,1
2022-08-25T05:38:07.069Z,8.6
2022-08-25T05:39:06.710Z,3.9
2022-08-25T05:40:06.445Z,1.5
2022-08-25T05:41:07.200Z,2.1
2022-08-25T05:42:06.940Z,2.4
2022-08-25T05:43:06.631Z,3.3
2022-08-25T05:44:06.321Z,5.3
2022-08-25T05:45:07.028Z,1
2022-08-25T05:46:06.842Z,3.4
2022-08-25T05:47:06.561Z,2.4
2022-08-25T05:48:06.315Z,2.1
2022-08-25T05:49:07.169Z,2.3
2022-08-25T05:50:06.953Z,1.2
2022-08-25T05:51:06.649Z,2.6
2022-08-25T05:52:06.454Z,7.3
2022-08-25T05:53:07.134Z,2.8
2022-08-25T05:54:06.883Z,0.4
2022-08-25T05:55:06.647Z,3
2022-08-25T05:56:06.416Z,2.4
2022-08-25T05:57:07.209Z,4.5
2022-08-25T05:58:06.992Z,3.7
2022-08-25T05:59:06.698Z,1.3
2022-08-25T06:00:06.818Z,2.7
2022-08-25T06:01:06.982Z,4.4
2022-08-25T06:02:06.888Z,0.6
2022-08-25T06:03:06.663Z,3.7
2022-08-25T06:04:06.494Z,1.3
2022-08-25T06:05:07.188Z,1.4
2022-08-25T06:06:06.834Z,1.8
2022-08-25T06:07:06.580Z,1
2022-08-25T06:08:06.261Z,4.2
2022-08-25T06:09:06.961Z,2
2022-08-25T06:10:06.893Z,3.6
2022-08-25T06:11:06.501Z,2.3
2022-08-25T06:12:07.197Z,4
2022-08-25T06:13:06.998Z,2.5
2022-08-25T06:14:06.723Z,1.6
2022-08-25T06:15:06.360Z,5.6
2022-08-25T06:16:07.077Z,1.9
2022-08-25T06:17:06.848Z,1.9
2022-08-25T06:18:06.604Z,0.5
2022-08-25T06:19:06.306Z,5.4
2022-08-25T06:20:06.947Z,7.6
2022-08-25T06:21:06.638Z,2.6
2022-08-25T06:22:06.944Z,3.6
2022-08-25T06:23:06.661Z,4.5
2022-08-25T06:24:06.473Z,3.6
2022-08-25T06:25:07.190Z,1.1
2022-08-25T06:26:06.987Z,3.2
2022-08-25T06:27:06.730Z,2
2022-08-25T06:28:06.602Z,4.9
2022-08-25T06:29:06.352Z,4.4
2022-08-25T06:30:06.698Z,2.5
2022-08-25T06:31:06.361Z,5.1
2022-08-25T06:32:07.127Z,3
2022-08-25T06:33:06.772Z,2
2022-08-25T06:34:06.497Z,4.1
2022-08-25T06:35:06.236Z,3.1
2022-08-25T06:36:06.577Z,2.2
2022-08-25T06:37:06.340Z,2.6
2022-08-25T06:38:07.190Z,3.2
2022-08-25T06:39:06.909Z,3.1
2022-08-25T06:40:06.657Z,3.9
2022-08-25T06:41:06.336Z,2.3
2022-08-25T06:42:06.447Z,2.4
2022-08-25T06:43:07.157Z,4
2022-08-25T06:44:06.870Z,3.1
2022-08-25T06:45:06.581Z,2
2022-08-25T06:46:06.292Z,3.3
2022-08-25T06:47:07.204Z,2.9
2022-08-25T06:48:06.976Z,3.3
2022-08-25T06:49:06.714Z,3.7
2022-08-25T06:50:06.652Z,1.3
2022-08-25T06:51:06.459Z,0.9
2022-08-25T06:52:07.160Z,0.4
2022-08-25T06:53:06.793Z,1.4
2022-08-25T06:54:06.500Z,1.3
2022-08-25T06:55:06.248Z,1.4
2022-08-25T06:56:06.978Z,1.2
2022-08-25T06:57:06.774Z,3.8
2022-08-25T06:58:06.627Z,1.4
2022-08-25T06:59:06.325Z,2.1
2022-08-25T07:00:07.278Z,4.5
2022-08-25T07:01:06.357Z,2
2022-08-25T07:02:07.116Z,0.9
2022-08-25T07:03:06.864Z,1.6
2022-08-25T07:04:06.535Z,5
2022-08-25T07:05:06.272Z,2.7
2022-08-25T07:06:06.902Z,2.8
2022-08-25T07:07:06.752Z,2.1
2022-08-25T07:08:06.602Z,2.3
2022-08-25T07:09:06.504Z,2.7
2022-08-25T07:10:06.930Z,5.1
2022-08-25T07:11:06.524Z,1.7
2022-08-25T07:12:06.240Z,3.1
2022-08-25T07:13:07.064Z,3.2
2022-08-25T07:14:06.802Z,2.1
2022-08-25T07:15:06.530Z,2.1
2022-08-25T07:16:06.869Z,1.1
2022-08-25T07:17:06.528Z,1.9
2022-08-25T07:18:06.266Z,6.5
2022-08-25T07:19:06.970Z,0.8
2022-08-25T07:20:06.701Z,4
2022-08-25T07:21:06.343Z,3.2
2022-08-25T07:22:07.083Z,4
2022-08-25T07:23:06.767Z,5
2022-08-25T07:24:06.515Z,2.5
2022-08-25T07:25:07.198Z,3.3
2022-08-25T07:26:07.021Z,3
2022-08-25T07:27:06.663Z,3.8
2022-08-25T07:28:06.369Z,3.1
2022-08-25T07:29:07.069Z,1.3
2022-08-25T07:30:06.841Z,0.9
2022-08-25T07:31:06.629Z,3.4
2022-08-25T07:32:06.453Z,2
2022-08-25T07:33:06.394Z,1.7
2022-08-25T07:34:06.419Z,2.1
2022-08-25T07:35:06.893Z,3.5
2022-08-25T07:36:07.139Z,0.6
2022-08-25T07:37:06.816Z,2
2022-08-25T07:38:06.971Z,2.1
2022-08-25T07:39:06.847Z,2.1
2022-08-25T07:40:06.571Z,1.1
2022-08-25T07:41:06.334Z,3.2
2022-08-25T07:42:06.822Z,3.6
2022-08-25T07:43:06.513Z,1
2022-08-25T07:44:06.257Z,2.4
2022-08-25T07:45:06.934Z,1.5
2022-08-25T07:46:06.697Z,1.6
2022-08-25T07:47:06.417Z,6.1
2022-08-25T07:48:07.121Z,2.8
2022-08-25T07:49:06.818Z,0.8
2022-08-25T07:50:07.221Z,7.3
2022-08-25T07:51:07.056Z,2.2
2022-08-25T07:52:06.888Z,3.2
2022-08-25T07:53:06.525Z,0.7
2022-08-25T07:54:06.299Z,3.5
2022-08-25T07:55:07.175Z,6.9
2022-08-25T07:56:06.866Z,4.1
2022-08-25T07:57:06.668Z,2.4
2022-08-25T07:58:06.391Z,3.7
2022-08-25T07:59:06.943Z,4.8
2022-08-25T08:00:06.568Z,2.9
2022-08-25T08:01:07.208Z,3.5
2022-08-25T08:02:06.799Z,5.5
2022-08-25T08:03:06.907Z,2.7
2022-08-25T08:04:06.440Z,5
2022-08-25T08:05:06.772Z,3.6
2022-08-25T08:06:06.396Z,2.8
2022-08-25T08:07:07.122Z,3.6
2022-08-25T08:08:07.230Z,3.6
2022-08-25T08:09:07.039Z,5
2022-08-25T08:10:06.864Z,4.7
2022-08-25T08:11:07.096Z,5
2022-08-25T08:12:06.974Z,2
2022-08-25T08:13:06.629Z,5.6
2022-08-25T08:14:06.208Z,4.3
2022-08-25T08:15:06.883Z,4.1
2022-08-25T08:16:06.627Z,3
2022-08-25T08:17:06.373Z,3.2
2022-08-25T08:18:07.170Z,3
2022-08-25T08:19:06.813Z,1.2
2022-08-25T08:20:06.551Z,4.8
2022-08-25T08:21:06.707Z,5.8
2022-08-25T08:22:06.487Z,3.7
2022-08-25T08:23:07.188Z,3.1
2022-08-25T08:24:06.929Z,2
2022-08-25T08:25:07.233Z,1.9
2022-08-25T08:26:06.982Z,1.2
2022-08-25T08:27:06.814Z,2.1
2022-08-25T08:28:06.505Z,3.8
2022-08-25T08:29:06.271Z,4
2022-08-25T08:30:07.074Z,3.1
2022-08-25T08:31:07.247Z,1.4
2022-08-25T08:32:06.887Z,1.6
2022-08-25T08:33:07.164Z,7.1
2022-08-25T08:34:06.228Z,2
2022-08-25T08:35:06.942Z,5.2
2022-08-25T08:36:06.690Z,3.3
2022-08-25T08:37:06.435Z,8.8
2022-08-25T08:38:07.148Z,2.7
2022-08-25T08:39:06.914Z,6.7
2022-08-25T08:40:06.669Z,4.1
2022-08-25T08:41:06.828Z,6.1
2022-08-25T08:42:07.086Z,5.8
2022-08-25T08:43:06.402Z,2.1
2022-08-25T08:44:06.247Z,7
2022-08-25T08:45:06.404Z,6.1
2022-08-25T08:46:06.980Z,3.3
2022-08-25T08:47:06.713Z,2.3
2022-08-25T08:48:07.214Z,3.1
2022-08-25T08:49:06.795Z,4.4
2022-08-25T08:50:06.323Z,4.9
2022-08-25T08:51:06.815Z,3.8
2022-08-25T08:52:07.030Z,4.7
2022-08-25T08:53:06.455Z,6.5
2022-08-25T08:54:06.346Z,4.4
2022-08-25T08:55:06.938Z,6.5
2022-08-25T08:56:06.362Z,3.2
2022-08-25T08:57:06.810Z,6.4
2022-08-25T08:58:06.471Z,4.4
2022-08-25T08:59:06.886Z,8
2022-08-25T09:00:06.855Z,1.7
2022-08-25T09:01:06.929Z,4.4
2022-08-25T09:02:07.147Z,4.6
2022-08-25T09:03:06.517Z,3.9
2022-08-25T09:04:06.788Z,2.4
2022-08-25T09:05:06.336Z,7.9
2022-08-25T09:06:06.602Z,2.1
2022-08-25T09:07:07.181Z,3.9
2022-08-25T09:08:07.210Z,4.9
2022-08-25T09:09:06.409Z,3.7
2022-08-25T09:10:06.460Z,5.5
2022-08-25T09:11:06.240Z,5.6
2022-08-25T09:12:06.508Z,6.5
2022-08-25T09:13:06.938Z,16
2022-08-25T09:14:06.717Z,16.2
2022-08-25T09:15:06.977Z,14
2022-08-25T09:16:06.561Z,14
2022-08-25T09:17:06.892Z,13.8
2022-08-25T09:18:06.979Z,15.1
2022-08-25T09:19:06.347Z,13.8
2022-08-25T09:20:06.712Z,14.3
2022-08-25T09:21:06.703Z,13.9
2022-08-25T09:22:06.518Z,14.5
2022-08-25T09:23:06.381Z,16
2022-08-25T09:24:06.616Z,14.9
2022-08-25T09:25:07.020Z,14.3
2022-08-25T09:26:06.870Z,14.2
2022-08-25T09:27:06.937Z,16.1
2022-08-25T09:28:07.089Z,12.7
2022-08-25T09:29:06.341Z,13.2
2022-08-25T09:30:06.647Z,14.5
2022-08-25T09:31:07.040Z,13.9
2022-08-25T09:32:06.796Z,12.2
2022-08-25T09:33:06.607Z,15.6
2022-08-25T09:34:06.987Z,14.9
2022-08-25T09:35:06.655Z,14.2
2022-08-25T09:36:06.257Z,14
2022-08-25T09:37:07.087Z,13.3
2022-08-25T09:38:06.818Z,13
2022-08-25T09:39:06.713Z,15.5
2022-08-25T09:40:06.335Z,13.9
2022-08-25T09:41:07.139Z,13.3
2022-08-25T09:42:06.818Z,19.5
2022-08-25T09:43:06.568Z,14
2022-08-25T09:44:06.523Z,17.7
2022-08-25T09:45:06.722Z,15.2
2022-08-25T09:46:06.832Z,12.6
2022-08-25T09:47:06.684Z,14
2022-08-25T09:48:06.995Z,16.2
2022-08-25T09:49:06.860Z,15.3
2022-08-25T09:50:07.161Z,14.7
2022-08-25T09:51:06.420Z,15.2
2022-08-25T09:52:06.960Z,15
2022-08-25T09:53:06.282Z,14.4
2022-08-25T09:54:06.328Z,14.5
2022-08-25T09:55:06.375Z,11.9
2022-08-25T09:56:07.081Z,11.3
2022-08-25T09:57:07.008Z,11.9
2022-08-25T09:58:06.393Z,9.7
2022-08-25T09:59:07.107Z,9.5
2022-08-25T10:00:07.056Z,15.2
2022-08-25T10:01:07.209Z,15
2022-08-25T10:02:07.181Z,15.7
2022-08-25T10:03:06.735Z,16.2
2022-08-25T10:04:07.082Z,16.3
2022-08-25T10:05:06.911Z,15.7
2022-08-25T10:06:06.582Z,14.5
2022-08-25T10:07:06.926Z,16.2
2022-08-25T10:08:06.973Z,15.6
2022-08-25T10:09:06.247Z,16.8
2022-08-25T10:10:07.054Z,14.1
2022-08-25T10:11:06.764Z,15.5
2022-08-25T10:12:06.457Z,16
2022-08-25T10:13:06.247Z,16.8
2022-08-25T10:14:07.232Z,14.9
2022-08-25T10:15:06.992Z,13.7
2022-08-25T10:16:06.664Z,14.5
2022-08-25T10:17:06.294Z,16.1
2022-08-25T10:18:07.027Z,15
2022-08-25T10:19:06.700Z,13.2
2022-08-25T10:20:06.524Z,14.8
2022-08-25T10:21:06.688Z,12.4
2022-08-25T10:22:06.389Z,12.8
2022-08-25T10:23:07.084Z,13.2
2022-08-25T10:24:06.443Z,16.5
2022-08-25T10:25:06.339Z,11.9
2022-08-25T10:26:07.044Z,14.2
2022-08-25T10:27:06.843Z,13.3
2022-08-25T10:28:07.199Z,15.8
2022-08-25T10:29:06.597Z,12.4
2022-08-25T10:30:06.980Z,11.5
2022-08-25T10:31:06.891Z,14.8
2022-08-25T10:32:06.961Z,11.3
2022-08-25T10:33:06.603Z,11.1
2022-08-25T10:34:06.300Z,15.8
2022-08-25T10:35:06.736Z,14.8
2022-08-25T10:36:07.127Z,15.4
2022-08-25T10:37:06.249Z,14.8
2022-08-25T10:38:06.973Z,13.5
2022-08-25T10:39:06.849Z,15.7
2022-08-25T10:40:06.648Z,16
2022-08-25T10:41:06.493Z,17.2
2022-08-25T10:42:06.688Z,18.2
2022-08-25T10:43:06.253Z,16.3
2022-08-25T10:44:07.169Z,18.1
2022-08-25T10:45:06.691Z,19.2
2022-08-25T10:46:06.786Z,22.2
2022-08-25T10:47:06.950Z,21.7
2022-08-25T10:48:06.720Z,18.6
2022-08-25T10:49:06.971Z,13.4
2022-08-25T10:50:06.797Z,17.7
2022-08-25T10:51:07.018Z,16.6
2022-08-25T10:52:07.202Z,14.9
2022-08-25T10:53:06.417Z,18.6
2022-08-25T10:54:06.295Z,21.6
2022-08-25T10:55:06.721Z,19.1
2022-08-25T10:56:06.515Z,16.4
2022-08-25T10:57:06.285Z,17.1
2022-08-25T10:58:06.413Z,16.9
2022-08-25T10:59:06.700Z,17.6
2022-08-25T11:00:06.513Z,18.8
2022-08-25T11:01:06.507Z,19.2
2022-08-25T11:02:07.135Z,18
2022-08-25T11:03:06.815Z,17.6
2022-08-25T11:04:06.515Z,19.8
2022-08-25T11:05:06.910Z,16.8
2022-08-25T11:06:06.949Z,19.2
2022-08-25T11:07:06.621Z,19.4
2022-08-25T11:08:06.709Z,19.7
2022-08-25T11:09:06.565Z,17.8
2022-08-25T11:10:06.808Z,16.8
2022-08-25T11:11:06.696Z,18.2
2022-08-25T11:12:06.419Z,18.8
2022-08-25T11:13:06.769Z,17.2
2022-08-25T11:14:06.716Z,19
2022-08-25T11:15:06.592Z,18.4
2022-08-25T11:16:06.470Z,17.1
2022-08-25T11:17:06.826Z,17.4
2022-08-25T11:18:06.208Z,17.8
2022-08-25T11:19:06.930Z,16.3
2022-08-25T11:20:06.477Z,15.8
2022-08-25T11:21:06.694Z,17.5
2022-08-25T11:22:06.534Z,15.8
2022-08-25T11:23:06.923Z,13.1
2022-08-25T11:24:06.198Z,16.6
2022-08-25T11:25:06.441Z,15.9
2022-08-25T11:26:06.623Z,18
2022-08-25T11:27:06.470Z,19.3
2022-08-25T11:28:06.951Z,17.5
2022-08-25T11:29:07.091Z,16.3
2022-08-25T11:30:07.115Z,13.3
2022-08-25T11:31:06.833Z,14.4
2022-08-25T11:32:06.965Z,15.1
2022-08-25T11:33:06.688Z,15.2
2022-08-25T11:34:06.436Z,8.3
2022-08-25T11:35:06.937Z,15.3
2022-08-25T11:36:06.688Z,16.8
2022-08-25T11:37:07.152Z,16.2
2022-08-25T11:38:07.054Z,16.2
2022-08-25T11:39:07.099Z,15.1
2022-08-25T11:40:06.845Z,14.6
2022-08-25T11:41:06.934Z,13.1
2022-08-25T11:42:06.494Z,16.8
2022-08-25T11:43:06.375Z,10.5
2022-08-25T11:44:07.097Z,16.3
2022-08-25T11:45:06.374Z,15.2
2022-08-25T11:46:06.294Z,17
2022-08-25T11:47:06.866Z,16.7
2022-08-25T11:48:06.755Z,15.7
2022-08-25T11:49:07.098Z,12
2022-08-25T11:50:06.433Z,16.2
2022-08-25T11:51:06.497Z,18.4
2022-08-25T11:52:06.307Z,19.2
2022-08-25T11:53:06.894Z,17.2
2022-08-25T11:54:06.763Z,18
2022-08-25T11:55:06.451Z,17.3
2022-08-25T11:56:06.656Z,17.9
2022-08-25T11:57:06.763Z,16.8
2022-08-25T11:58:06.471Z,14.8
2022-08-25T11:59:07.128Z,16.5
2022-08-25T12:00:06.544Z,17
2022-08-25T12:01:06.746Z,16.7
2022-08-25T12:02:07.117Z,15.7
2022-08-25T12:03:06.265Z,16
2022-08-25T12:04:06.737Z,15.5
2022-08-25T12:05:06.749Z,16.9
2022-08-25T12:06:06.841Z,17.4
2022-08-25T12:07:06.513Z,16.3
2022-08-25T12:08:06.772Z,16.9
2022-08-25T12:09:06.440Z,15
2022-08-25T12:10:06.218Z,16.1
2022-08-25T12:11:06.362Z,16.8
2022-08-25T12:12:06.716Z,16.8
2022-08-25T12:13:07.013Z,16.2
2022-08-25T12:14:06.178Z,16.3
2022-08-25T12:15:06.202Z,17.7
2022-08-25T12:16:06.428Z,15
2022-08-25T12:17:07.165Z,14.6
2022-08-25T12:18:07.169Z,15.1
2022-08-25T12:19:07.016Z,18.5
2022-08-25T12:20:06.290Z,15.5
2022-08-25T12:21:06.558Z,17.4
2022-08-25T12:22:06.312Z,16.2
2022-08-25T12:23:06.689Z,17.5
2022-08-25T12:24:07.074Z,17.5
2022-08-25T12:25:06.410Z,18.2
2022-08-25T12:26:06.551Z,14.8
2022-08-25T12:27:07.173Z,16.3
2022-08-25T12:28:06.186Z,18.2
2022-08-25T12:29:06.726Z,16.4
2022-08-25T12:30:06.991Z,16.6
2022-08-25T12:31:06.828Z,15.8
2022-08-25T12:32:07.123Z,15.5
2022-08-25T12:33:06.194Z,16.1
2022-08-25T12:34:06.975Z,15.7
2022-08-25T12:35:06.237Z,14
2022-08-25T12:36:07.179Z,17.1
2022-08-25T12:37:06.829Z,13.4
2022-08-25T12:38:06.674Z,17
2022-08-25T12:39:06.469Z,13.5
2022-08-25T12:40:06.960Z,17
2022-08-25T12:41:06.267Z,16.5
2022-08-25T12:42:06.281Z,15.7
2022-08-25T12:43:06.528Z,17.7
2022-08-25T12:44:07.029Z,16.4
2022-08-25T12:45:06.687Z,15.9
2022-08-25T12:46:06.455Z,17
2022-08-25T12:47:07.194Z,17.5
2022-08-25T12:48:06.814Z,13.7
2022-08-25T12:49:07.019Z,14.2
2022-08-25T12:50:06.731Z,15.1
2022-08-25T12:51:06.463Z,16.3
2022-08-25T12:52:06.706Z,15.6
2022-08-25T12:53:06.531Z,16.5
2022-08-25T12:54:06.514Z,16
2022-08-25T12:55:07.057Z,16.3
2022-08-25T12:56:06.788Z,14.5
2022-08-25T12:57:06.921Z,16.2
2022-08-25T12:58:07.120Z,16.9
2022-08-25T12:59:06.464Z,15
2022-08-25T13:00:07.139Z,17.7
2022-08-25T13:01:06.450Z,15
2022-08-25T13:02:07.110Z,16.2
2022-08-25T13:03:06.728Z,15.5
2022-08-25T13:04:07.096Z,15.9
2022-08-25T13:05:06.496Z,15.4
2022-08-25T13:06:07.126Z,12.2
2022-08-25T13:07:06.975Z,13.2
2022-08-25T13:08:06.747Z,11.9
2022-08-25T13:09:07.000Z,9.6
2022-08-25T13:10:06.314Z,13.9
2022-08-25T13:11:06.868Z,15.5
2022-08-25T13:12:06.296Z,15.7
2022-08-25T13:13:06.758Z,14.5
2022-08-25T13:14:06.994Z,13.7
2022-08-25T13:15:06.251Z,15.3
2022-08-25T13:16:06.989Z,16.4
2022-08-25T13:17:06.742Z,14.1
2022-08-25T13:18:06.392Z,14.9
2022-08-25T13:19:07.178Z,15.3
2022-08-25T13:20:06.575Z,15.3
2022-08-25T13:21:06.308Z,15.7
2022-08-25T13:22:06.480Z,13.4
2022-08-25T13:23:06.235Z,16
2022-08-25T13:24:06.560Z,16.1
2022-08-25T13:25:06.928Z,15.4
2022-08-25T13:26:06.412Z,15
2022-08-25T13:27:06.539Z,14.8
2022-08-25T13:28:06.518Z,15.7
2022-08-25T13:29:06.667Z,14.4
2022-08-25T13:30:07.177Z,14.8
2022-08-25T13:31:07.248Z,15.1
2022-08-25T13:32:07.152Z,17
2022-08-25T13:33:06.929Z,16.2
2022-08-25T13:34:06.739Z,15.5
2022-08-25T13:35:06.550Z,16.6
2022-08-25T13:36:06.319Z,14.7
2022-08-25T13:37:06.775Z,16.5
2022-08-25T13:38:06.484Z,16
2022-08-25T13:39:06.289Z,10.5
2022-08-25T13:40:06.597Z,19.6
2022-08-25T13:41:06.232Z,16.1
2022-08-25T13:42:06.322Z,14.7
2022-08-25T13:43:06.372Z,15.2